createdAt,value
2018-08-31T00:02:00.736Z,101331.45
2018-08-31T00:04:35.352Z,101337.16
2018-08-31T00:07:07.660Z,101337.85
2018-08-31T00:09:40.792Z,101338.48
2018-08-31T00:12:16.028Z,101327.66
2018-08-31T00:14:43.649Z,101338.48
2018-08-31T00:17:10.279Z,101333.42
2018-08-31T00:19:36.911Z,101341.34
2018-08-31T00:22:03.557Z,101341.88
2018-08-31T00:24:35.867Z,101340.51
2018-08-31T00:27:08.199Z,101335.49
2018-08-31T00:29:46.796Z,101343.91
2018-08-31T00:32:20.509Z,101334.70
2018-08-31T00:35:57.421Z,101339.17
2018-08-31T00:38:29.625Z,101337.41
2018-08-31T00:41:04.072Z,101340.62
2018-08-31T00:43:37.359Z,101347.50
2018-08-31T00:46:04.041Z,101344.94
2018-08-31T00:48:30.668Z,101339.38
2018-08-31T00:50:57.340Z,101339.13
2018-08-31T00:53:25.086Z,101339.43
2018-08-31T00:55:51.720Z,101336.52
2018-08-31T00:58:18.355Z,101340.65
2018-08-31T01:00:44.996Z,101345.52
2018-08-31T01:03:11.696Z,101345.23
2018-08-31T01:05:39.302Z,101340.30
2018-08-31T01:08:06.901Z,101338.48
2018-08-31T01:10:34.580Z,101343.16
2018-08-31T01:13:02.193Z,101333.81
2018-08-31T01:15:29.849Z,101339.81
2018-08-31T01:17:57.459Z,101344.64
2018-08-31T01:20:25.584Z,101351.48
2018-08-31T01:22:53.180Z,101344.30
2018-08-31T01:25:20.732Z,101346.84
2018-08-31T01:27:48.275Z,101352.37
2018-08-31T01:32:48.908Z,101352.27
2018-08-31T01:35:16.387Z,101353.50
2018-08-31T01:37:44.438Z,101347.26
2018-08-31T01:40:12.084Z,101352.37
2018-08-31T01:42:39.660Z,101350.06
2018-08-31T01:45:07.601Z,101350.16
2018-08-31T01:47:35.184Z,101348.19
2018-08-31T01:50:02.799Z,101354.83
2018-08-31T01:52:30.525Z,101353.70
2018-08-31T01:54:58.197Z,101355.17
2018-08-31T01:57:25.845Z,101359.65
2018-08-31T01:59:54.132Z,101355.56
2018-08-31T02:02:22.717Z,101356.16
2018-08-31T02:04:49.392Z,101357.42
2018-08-31T02:07:16.845Z,101357.63
2018-08-31T02:09:44.933Z,101356.94
2018-08-31T02:12:13.212Z,101360.88
2018-08-31T02:14:39.852Z,101361.72
2018-08-31T02:17:06.528Z,101369.06
2018-08-31T02:19:33.242Z,101370.18
2018-08-31T02:22:00.896Z,101363.94
2018-08-31T02:24:28.580Z,101364.77
2018-08-31T02:26:56.164Z,101365.11
2018-08-31T02:29:23.765Z,101372.04
2018-08-31T02:31:51.477Z,101368.27
2018-08-31T02:34:19.035Z,101369.73
2018-08-31T02:36:46.688Z,101361.63
2018-08-31T02:39:14.394Z,101368.31
2018-08-31T02:41:41.819Z,101366.80
2018-08-31T02:44:09.277Z,101372.84
2018-08-31T02:46:36.856Z,101372.00
2018-08-31T02:49:04.594Z,101373.23
2018-08-31T02:51:32.049Z,101370.71
2018-08-31T02:53:59.683Z,101376.13
2018-08-31T02:56:27.332Z,101379.28
2018-08-31T02:58:54.936Z,101372.00
2018-08-31T03:01:22.496Z,101374.41
2018-08-31T03:03:50.150Z,101378.55
2018-08-31T03:06:17.806Z,101380.02
2018-08-31T03:08:44.493Z,101377.41
2018-08-31T03:11:11.136Z,101382.28
2018-08-31T03:13:37.787Z,101377.42
2018-08-31T03:16:04.441Z,101380.70
2018-08-31T03:18:31.081Z,101387.80
2018-08-31T03:20:57.756Z,101381.34
2018-08-31T03:23:25.858Z,101386.66
2018-08-31T03:25:52.496Z,101386.52
2018-08-31T03:28:19.152Z,101383.37
2018-08-31T03:30:45.833Z,101381.90
2018-08-31T03:33:14.489Z,101373.33
2018-08-31T03:35:41.983Z,101376.37
2018-08-31T03:38:09.466Z,101379.14
2018-08-31T03:40:37.133Z,101384.20
2018-08-31T03:43:04.989Z,101383.61
2018-08-31T03:45:31.639Z,101388.93
2018-08-31T03:47:59.245Z,101391.23
2018-08-31T03:50:25.953Z,101394.00
2018-08-31T03:52:54.093Z,101390.64
2018-08-31T03:55:21.525Z,101388.93
2018-08-31T03:57:49.066Z,101390.54
2018-08-31T04:00:16.664Z,101392.42
2018-08-31T04:02:44.241Z,101388.45
2018-08-31T04:05:11.868Z,101396.90
2018-08-31T04:07:39.419Z,101391.38
2018-08-31T04:10:07.201Z,101404.52
2018-08-31T04:12:34.668Z,101397.04
2018-08-31T04:15:02.388Z,101398.51
2018-08-31T04:17:29.033Z,101388.80
2018-08-31T04:19:56.064Z,101392.36
2018-08-31T04:22:24.633Z,101401.16
2018-08-31T04:24:52.125Z,101398.23
2018-08-31T04:27:19.584Z,101400.67
2018-08-31T04:29:47.185Z,101397.53
2018-08-31T04:32:14.818Z,101393.89
2018-08-31T04:34:43.388Z,101400.33
2018-08-31T04:37:11.008Z,101399.56
2018-08-31T04:39:38.688Z,101400.05
2018-08-31T04:42:06.224Z,101403.06
2018-08-31T04:44:33.926Z,101416.13
2018-08-31T04:47:01.524Z,101422.14
2018-08-31T04:49:29.000Z,101420.81
2018-08-31T04:51:56.686Z,101416.97
2018-08-31T04:54:25.155Z,101419.98
2018-08-31T04:56:52.640Z,101424.59
2018-08-31T04:59:20.156Z,101427.32
2018-08-31T05:01:47.801Z,101435.31
2018-08-31T05:04:15.421Z,101430.88
2018-08-31T05:06:44.063Z,101428.58
2018-08-31T05:09:12.209Z,101429.98
2018-08-31T05:11:39.924Z,101434.24
2018-08-31T05:14:07.650Z,101426.62
2018-08-31T05:16:35.253Z,101433.05
2018-08-31T05:19:03.056Z,101434.59
2018-08-31T05:21:30.632Z,101431.59
2018-08-31T05:23:58.268Z,101435.92
2018-08-31T05:26:26.116Z,101439.91
2018-08-31T05:28:54.256Z,101443.78
2018-08-31T05:31:20.891Z,101434.59
2018-08-31T05:33:48.379Z,101436.76
2018-08-31T05:36:15.061Z,101436.27
2018-08-31T05:38:43.628Z,101432.77
2018-08-31T05:41:10.308Z,101433.89
2018-08-31T05:43:37.859Z,101424.94
2018-08-31T05:46:04.589Z,101431.23
2018-08-31T05:48:32.223Z,101434.23
2018-08-31T05:50:59.880Z,101439.20
2018-08-31T05:53:27.589Z,101447.38
2018-08-31T05:55:55.126Z,101450.04
2018-08-31T05:58:21.781Z,101445.49
2018-08-31T06:00:49.333Z,101450.80
2018-08-31T06:03:16.916Z,101454.77
2018-08-31T06:05:44.501Z,101454.66
2018-08-31T06:08:12.100Z,101455.63
2018-08-31T06:10:39.656Z,101456.69
2018-08-31T06:13:07.220Z,101461.65
2018-08-31T06:15:34.765Z,101460.31
2018-08-31T06:18:02.368Z,101463.81
2018-08-31T06:20:30.022Z,101465.84
2018-08-31T06:22:57.636Z,101461.05
2018-08-31T06:25:25.235Z,101468.78
2018-08-31T06:27:52.888Z,101465.73
2018-08-31T06:30:20.489Z,101470.70
2018-08-31T06:32:48.166Z,101463.81
2018-08-31T06:35:15.756Z,101464.16
2018-08-31T06:37:44.216Z,101465.03
2018-08-31T06:40:11.760Z,101477.55
2018-08-31T06:42:39.319Z,101476.61
2018-08-31T06:45:06.946Z,101490.73
2018-08-31T06:47:34.563Z,101491.50
2018-08-31T06:50:02.205Z,101485.66
2018-08-31T06:52:29.940Z,101487.59
2018-08-31T06:54:57.596Z,101487.97
2018-08-31T06:57:25.232Z,101489.20
2018-08-31T06:59:52.894Z,101496.92
2018-08-31T07:02:20.536Z,101501.47
2018-08-31T07:04:48.151Z,101505.13
2018-08-31T07:07:15.831Z,101507.06
2018-08-31T07:09:43.480Z,101510.31
2018-08-31T07:12:10.167Z,101516.60
2018-08-31T07:14:36.820Z,101508.77
2018-08-31T07:17:04.477Z,101506.57
2018-08-31T07:19:31.125Z,101505.45
2018-08-31T07:21:57.768Z,101508.22
2018-08-31T07:24:25.264Z,101512.73
2018-08-31T07:26:52.925Z,101507.90
2018-08-31T07:29:20.233Z,101517.80
2018-08-31T07:31:46.922Z,101514.76
2018-08-31T07:34:14.515Z,101525.63
2018-08-31T07:36:42.128Z,101525.14
2018-08-31T07:39:10.501Z,101531.78
2018-08-31T07:41:37.165Z,101536.72
2018-08-31T07:44:05.161Z,101536.47
2018-08-31T07:46:31.815Z,101536.85
2018-08-31T07:48:58.491Z,101543.04
2018-08-31T07:51:25.134Z,101538.54
2018-08-31T07:53:51.824Z,101542.73
2018-08-31T07:56:18.444Z,101540.22
2018-08-31T07:58:45.137Z,101543.02
2018-08-31T08:01:11.788Z,101550.03
2018-08-31T08:03:39.392Z,101547.38
2018-08-31T08:06:07.060Z,101553.91
2018-08-31T08:08:34.660Z,101552.69
2018-08-31T08:11:02.300Z,101556.78
2018-08-31T08:13:29.991Z,101563.33
2018-08-31T08:15:57.624Z,101561.39
2018-08-31T08:18:25.111Z,101564.41
2018-08-31T08:20:52.803Z,101558.11
2018-08-31T08:23:20.289Z,101556.32
2018-08-31T08:25:49.217Z,101558.25
2018-08-31T08:28:16.832Z,101560.17
2018-08-31T08:30:44.425Z,101558.25
2018-08-31T08:33:12.056Z,101563.21
2018-08-31T08:35:39.669Z,101573.70
2018-08-31T08:38:06.401Z,101569.99
2018-08-31T08:40:34.000Z,101569.13
2018-08-31T08:43:00.948Z,101572.73
2018-08-31T08:45:28.824Z,101573.95
2018-08-31T08:47:55.531Z,101580.59
2018-08-31T08:50:22.988Z,101579.13
2018-08-31T08:52:50.684Z,101580.22
2018-08-31T08:55:18.306Z,101588.55
2018-08-31T08:57:46.017Z,101584.31
2018-08-31T09:00:14.780Z,101585.53
2018-08-31T09:02:42.320Z,101588.89
2018-08-31T09:05:09.885Z,101586.73
2018-08-31T09:07:37.525Z,101582.39
2018-08-31T09:10:05.200Z,101586.02
2018-08-31T09:12:32.685Z,101586.37
2018-08-31T09:15:00.341Z,101586.02
2018-08-31T09:17:26.984Z,101589.00
2018-08-31T09:19:55.444Z,101590.13
2018-08-31T09:22:22.945Z,101592.16
2018-08-31T09:24:50.590Z,101588.03
2018-08-31T09:27:18.064Z,101588.88
2018-08-31T09:29:45.531Z,101588.77
2018-08-31T09:32:18.961Z,101582.82
2018-08-31T09:34:51.129Z,101582.09
2018-08-31T09:37:19.305Z,101582.33
2018-08-31T09:39:47.297Z,101580.16
2018-08-31T09:42:15.154Z,101577.27
2018-08-31T09:44:43.948Z,101582.72
2018-08-31T09:47:11.676Z,101588.88
2018-08-31T09:49:39.383Z,101588.77
2018-08-31T09:52:07.120Z,101590.58
2018-08-31T09:54:34.664Z,101586.21
2018-08-31T09:57:02.224Z,101585.13
2018-08-31T09:59:29.885Z,101585.62
2018-08-31T10:02:05.068Z,101582.12
2018-08-31T10:04:32.704Z,101582.61
2018-08-31T10:07:00.274Z,101579.46
2018-08-31T10:09:28.149Z,101578.73
2018-08-31T10:11:56.676Z,101582.92
2018-08-31T10:14:25.365Z,101574.73
2018-08-31T10:16:52.841Z,101577.27
2018-08-31T10:19:20.485Z,101572.44
2018-08-31T10:21:48.108Z,101571.81
2018-08-31T10:24:15.741Z,101569.05
2018-08-31T10:26:44.280Z,101559.81
2018-08-31T10:29:11.905Z,101570.23
2018-08-31T10:31:39.476Z,101565.63
2018-08-31T10:34:07.055Z,101564.78
2018-08-31T10:36:34.719Z,101560.44
2018-08-31T10:39:02.432Z,101559.11
2018-08-31T10:41:30.045Z,101556.20
2018-08-31T10:43:57.637Z,101553.06
2018-08-31T10:46:25.297Z,101556.94
2018-08-31T10:48:52.879Z,101559.81
2018-08-31T10:51:19.695Z,101566.59
2018-08-31T10:53:46.342Z,101557.64
2018-08-31T10:56:14.537Z,101556.42
2018-08-31T10:58:41.987Z,101558.23
2018-08-31T11:01:09.584Z,101554.73
2018-08-31T11:03:36.298Z,101554.50
2018-08-31T11:06:02.984Z,101549.77
2018-08-31T11:08:29.621Z,101549.42
2018-08-31T11:10:56.257Z,101549.91
2018-08-31T11:13:22.898Z,101552.92
2018-08-31T11:15:50.212Z,101550.16
2018-08-31T11:18:16.870Z,101547.01
2018-08-31T11:20:44.300Z,101554.14
2018-08-31T11:23:11.828Z,101555.55
2018-08-31T11:25:39.401Z,101558.13
2018-08-31T11:28:06.172Z,101560.30
2018-08-31T11:30:33.780Z,101557.26
2018-08-31T11:33:01.477Z,101553.41
2018-08-31T11:35:28.961Z,101552.92
2018-08-31T11:37:56.551Z,101558.23
2018-08-31T11:40:24.975Z,101561.88
2018-08-31T11:42:52.626Z,101554.60
2018-08-31T11:45:20.072Z,101559.08
2018-08-31T11:47:47.692Z,101562.47
2018-08-31T11:50:15.288Z,101563.06
2018-08-31T11:52:43.493Z,101557.26
2018-08-31T11:55:11.005Z,101559.92
2018-08-31T11:57:38.516Z,101558.23
2018-08-31T12:00:06.080Z,101558.59
2018-08-31T12:02:33.744Z,101563.91
2018-08-31T12:05:01.321Z,101570.09
2018-08-31T12:07:28.096Z,101573.31
2018-08-31T12:09:56.871Z,101562.33
2018-08-31T12:12:25.385Z,101552.33
2018-08-31T12:14:53.009Z,101557.89
2018-08-31T12:17:19.657Z,101559.33
2018-08-31T12:19:47.113Z,101558.59
2018-08-31T12:22:14.624Z,101552.08
2018-08-31T12:24:42.267Z,101552.08
2018-08-31T12:27:09.945Z,101547.95
2018-08-31T12:29:37.453Z,101551.11
2018-08-31T12:32:05.071Z,101548.34
2018-08-31T12:34:32.636Z,101552.33
2018-08-31T12:37:00.237Z,101557.75
2018-08-31T12:39:26.873Z,101546.77
2018-08-31T12:41:55.381Z,101550.27
2018-08-31T12:44:22.883Z,101550.75
2018-08-31T12:46:50.472Z,101540.95
2018-08-31T12:49:17.121Z,101545.20
2018-08-31T12:51:44.617Z,101544.25
2018-08-31T12:54:11.264Z,101546.27
2018-08-31T12:56:38.866Z,101545.30
2018-08-31T12:59:05.512Z,101541.83
2018-08-31T13:01:33.044Z,101544.95
2018-08-31T13:04:00.826Z,101539.98
2018-08-31T13:06:28.531Z,101542.67
2018-08-31T13:08:56.133Z,101542.19
2018-08-31T13:11:22.860Z,101543.65
2018-08-31T13:13:50.358Z,101539.77
2018-08-31T13:16:18.008Z,101540.61
2018-08-31T13:18:45.777Z,101544.11
2018-08-31T13:21:14.195Z,101536.62
2018-08-31T13:23:41.674Z,101537.22
2018-08-31T13:26:09.214Z,101544.25
2018-08-31T13:28:35.864Z,101546.80
2018-08-31T13:31:03.505Z,101539.88
2018-08-31T13:33:30.118Z,101545.68
2018-08-31T13:35:57.653Z,101544.25
2018-08-31T13:38:25.277Z,101541.80
2018-08-31T13:40:52.772Z,101544.45
2018-08-31T13:43:20.247Z,101541.45
2018-08-31T13:45:48.737Z,101546.41
2018-08-31T13:48:16.308Z,101547.75
2018-08-31T13:50:43.484Z,101546.17
2018-08-31T13:53:11.072Z,101550.65
2018-08-31T13:55:38.673Z,101544.00
2018-08-31T13:58:07.100Z,101542.56
2018-08-31T14:00:34.568Z,101539.07
2018-08-31T14:03:02.198Z,101535.33
2018-08-31T14:05:29.964Z,101538.47
2018-08-31T14:07:57.512Z,101543.16
2018-08-31T14:10:25.101Z,101544.49
2018-08-31T14:12:52.780Z,101546.17
2018-08-31T14:15:20.409Z,101540.99
2018-08-31T14:17:47.992Z,101534.34
2018-08-31T14:20:15.668Z,101535.33
2018-08-31T14:22:44.373Z,101539.66
2018-08-31T14:25:11.986Z,101539.17
2018-08-31T14:27:39.700Z,101541.83
2018-08-31T14:30:06.399Z,101540.89
2018-08-31T14:32:34.077Z,101538.83
2018-08-31T14:35:00.721Z,101537.00
2018-08-31T14:37:28.232Z,101549.67
2018-08-31T14:39:56.844Z,101536.86
2018-08-31T14:42:24.676Z,101543.52
2018-08-31T14:44:52.256Z,101539.17
2018-08-31T14:47:19.807Z,101536.52
2018-08-31T14:49:46.507Z,101541.97
2018-08-31T14:52:14.243Z,101538.55
2018-08-31T14:54:41.677Z,101531.06
2018-08-31T14:57:09.268Z,101537.84
2018-08-31T14:59:35.909Z,101536.38
2018-08-31T15:02:03.532Z,101537.84
2018-08-31T15:04:30.155Z,101539.53
2018-08-31T15:06:56.798Z,101540.86
2018-08-31T15:09:24.545Z,101548.23
2018-08-31T15:11:51.184Z,101540.02
2018-08-31T15:14:17.873Z,101542.43
2018-08-31T15:16:44.518Z,101541.20
2018-08-31T15:19:11.213Z,101536.77
2018-08-31T15:21:38.036Z,101540.26
2018-08-31T15:24:04.676Z,101542.53
2018-08-31T15:26:31.364Z,101544.59
2018-08-31T15:28:57.989Z,101546.77
2018-08-31T15:31:25.646Z,101553.27
2018-08-31T15:33:52.300Z,101551.59
2018-08-31T15:36:18.934Z,101551.73
2018-08-31T15:38:45.573Z,101546.41
2018-08-31T15:41:12.239Z,101549.81
2018-08-31T15:43:38.933Z,101555.13
2018-08-31T15:46:05.568Z,101554.77
2018-08-31T15:48:33.332Z,101554.28
2018-08-31T15:50:59.964Z,101549.70
2018-08-31T15:53:27.444Z,101553.34
2018-08-31T15:55:55.142Z,101555.27
2018-08-31T15:58:22.748Z,101562.50
2018-08-31T16:00:50.405Z,101557.92
2018-08-31T16:03:18.001Z,101555.27
2018-08-31T16:05:45.729Z,101553.69
2018-08-31T16:08:13.533Z,101552.12
2018-08-31T16:10:41.160Z,101548.73
2018-08-31T16:13:08.732Z,101558.41
2018-08-31T16:15:36.293Z,101559.36
2018-08-31T16:18:03.852Z,101558.03
2018-08-31T16:20:31.467Z,101556.59
2018-08-31T16:22:58.488Z,101562.02
2018-08-31T16:25:25.167Z,101560.34
2018-08-31T16:27:51.857Z,101557.44
2018-08-31T16:30:19.365Z,101560.30
2018-08-31T16:32:46.907Z,101556.84
2018-08-31T16:35:14.436Z,101560.83
2018-08-31T16:37:42.044Z,101563.13
2018-08-31T16:40:09.579Z,101558.30
2018-08-31T16:42:36.299Z,101556.14
2018-08-31T16:45:03.817Z,101555.65
2018-08-31T16:47:31.389Z,101555.65
2018-08-31T16:49:58.993Z,101552.50
2018-08-31T16:52:26.637Z,101559.25
2018-08-31T16:54:55.167Z,101556.59
2018-08-31T16:57:22.861Z,101552.74
2018-08-31T16:59:49.488Z,101553.58
2018-08-31T17:02:17.148Z,101555.65
2018-08-31T17:04:44.834Z,101551.77
2018-08-31T17:07:13.479Z,101556.59
2018-08-31T17:09:40.184Z,101553.23
2018-08-31T17:12:06.821Z,101552.74
2018-08-31T17:14:33.500Z,101554.70
2018-08-31T17:17:01.092Z,101558.89
2018-08-31T17:19:27.726Z,101554.70
2018-08-31T17:21:55.861Z,101562.05
2018-08-31T17:24:22.548Z,101563.48
2018-08-31T17:26:55.683Z,101569.50
2018-08-31T17:29:28.820Z,101565.97
2018-08-31T17:32:01.932Z,101571.88
2018-08-31T17:34:34.380Z,101571.88
2018-08-31T17:37:07.882Z,101576.44
2018-08-31T17:39:34.532Z,101580.52
2018-08-31T17:42:01.182Z,101580.03
2018-08-31T17:44:27.889Z,101579.89
2018-08-31T17:46:55.188Z,101584.72
2018-08-31T17:49:23.069Z,101576.53
2018-08-31T17:51:49.725Z,101578.91
2018-08-31T17:54:17.308Z,101580.24
2018-08-31T17:56:44.905Z,101584.38
2018-08-31T17:59:12.349Z,101592.70
2018-08-31T18:01:40.060Z,101595.50
2018-08-31T18:04:06.805Z,101598.89
2018-08-31T18:06:33.412Z,101605.41
2018-08-31T18:09:00.045Z,101608.91
2018-08-31T18:11:26.688Z,101609.39
2018-08-31T18:13:53.341Z,101605.30
2018-08-31T18:16:20.046Z,101608.69
2018-08-31T18:18:46.772Z,101609.67
2018-08-31T18:21:14.484Z,101613.91
2018-08-31T18:23:41.125Z,101612.58
2018-08-31T18:26:07.758Z,101615.38
2018-08-31T18:28:35.408Z,101618.98
2018-08-31T18:31:02.062Z,101612.95
2018-08-31T18:33:28.692Z,101609.95
2018-08-31T18:35:55.786Z,101612.47
2018-08-31T18:38:23.249Z,101612.61
2018-08-31T18:40:50.884Z,101619.00
2018-08-31T18:43:17.586Z,101621.94
2018-08-31T18:45:45.045Z,101622.78
2018-08-31T18:48:14.161Z,101633.03
2018-08-31T18:50:41.380Z,101635.48
2018-08-31T18:53:09.073Z,101621.83
2018-08-31T18:55:36.692Z,101627.02
2018-08-31T18:58:04.386Z,101625.81
2018-08-31T19:00:31.029Z,101629.07
2018-08-31T19:02:59.028Z,101630.02
2018-08-31T19:05:26.001Z,101635.12
2018-08-31T19:07:54.187Z,101639.70
2018-08-31T19:10:21.655Z,101639.00
2018-08-31T19:12:48.357Z,101642.36
2018-08-31T19:15:15.944Z,101643.94
2018-08-31T19:17:44.518Z,101644.67
2018-08-31T19:20:11.978Z,101654.44
2018-08-31T19:22:38.696Z,101659.05
2018-08-31T19:25:06.351Z,101655.05
2018-08-31T19:27:33.024Z,101657.13
2018-08-31T19:30:00.515Z,101655.66
2018-08-31T19:32:28.003Z,101661.57
2018-08-31T19:34:55.604Z,101662.79
2018-08-31T19:37:23.253Z,101668.11
2018-08-31T19:39:50.909Z,101663.50
2018-08-31T19:42:18.580Z,101659.51
2018-08-31T19:44:46.208Z,101662.19
2018-08-31T19:47:14.007Z,101665.22
2018-08-31T19:49:41.503Z,101662.45
2018-08-31T19:52:08.190Z,101666.66
2018-08-31T19:54:36.282Z,101668.48
2018-08-31T19:57:03.029Z,101665.95
2018-08-31T19:59:30.583Z,101671.16
2018-08-31T20:01:57.233Z,101674.52
2018-08-31T20:04:25.745Z,101684.09
2018-08-31T20:06:53.424Z,101688.19
2018-08-31T20:09:21.089Z,101690.25
2018-08-31T20:11:47.740Z,101695.92
2018-08-31T20:14:15.420Z,101689.41
2018-08-31T20:16:42.246Z,101698.72
2018-08-31T20:19:09.762Z,101695.57
2018-08-31T20:21:37.241Z,101699.66
2018-08-31T20:24:04.933Z,101700.98
2018-08-31T20:26:32.308Z,101705.95
2018-08-31T20:28:59.828Z,101705.59
2018-08-31T20:31:26.456Z,101703.07
2018-08-31T20:33:53.155Z,101712.38
2018-08-31T20:36:19.807Z,101714.30
2018-08-31T20:38:47.575Z,101715.03
2018-08-31T20:41:15.025Z,101718.77
2018-08-31T20:43:44.721Z,101725.90
2018-08-31T20:46:11.407Z,101730.61
2018-08-31T20:48:39.029Z,101731.22
2018-08-31T20:51:05.676Z,101729.14
2018-08-31T20:53:32.372Z,101732.42
2018-08-31T20:55:59.036Z,101734.46
2018-08-31T20:58:25.830Z,101734.84
2018-08-31T21:00:52.517Z,101735.20
2018-08-31T21:03:19.250Z,101735.34
2018-08-31T21:05:47.324Z,101740.65
2018-08-31T21:08:14.841Z,101740.04
2018-08-31T21:10:41.560Z,101732.66
2018-08-31T21:13:09.292Z,101734.38
2018-08-31T21:15:36.917Z,101738.36
2018-08-31T21:18:03.565Z,101736.89
2018-08-31T21:20:30.216Z,101735.92
2018-08-31T21:22:57.881Z,101742.08
2018-08-31T21:25:25.477Z,101736.64
2018-08-31T21:27:53.210Z,101732.91
2018-08-31T21:30:19.860Z,101734.95
2018-08-31T21:32:46.529Z,101737.88
2018-08-31T21:35:15.669Z,101744.52
2018-08-31T21:37:42.399Z,101743.54
2018-08-31T21:40:10.045Z,101735.08
2018-08-31T21:42:36.852Z,101742.69
2018-08-31T21:45:04.703Z,101738.23
2018-08-31T21:47:31.348Z,101744.52
2018-08-31T21:49:58.028Z,101743.89
2018-08-31T21:52:25.741Z,101748.72
2018-08-31T21:54:53.123Z,101751.02
2018-08-31T21:57:20.340Z,101751.38
2018-08-31T21:59:47.013Z,101758.16
2018-08-31T22:02:14.525Z,101754.17
2018-08-31T22:04:42.201Z,101753.81
2018-08-31T22:07:09.069Z,101757.67
2018-08-31T22:09:35.760Z,101766.61
2018-08-31T22:12:02.450Z,101761.40
2018-08-31T22:14:29.124Z,101763.70
2018-08-31T22:16:57.136Z,101762.27
2018-08-31T22:19:24.603Z,101763.95
2018-08-31T22:21:54.064Z,101758.64
2018-08-31T22:24:20.720Z,101756.57
2018-08-31T22:26:47.432Z,101755.37
2018-08-31T22:29:15.633Z,101746.78
2018-08-31T22:31:42.387Z,101754.40
2018-08-31T22:34:09.051Z,101749.70
2018-08-31T22:36:35.732Z,101751.52
2018-08-31T22:39:02.477Z,101746.06
2018-08-31T22:41:30.104Z,101753.94
2018-08-31T22:43:56.780Z,101746.56
2018-08-31T22:46:24.093Z,101741.86
2018-08-31T22:48:51.086Z,101742.22
2018-08-31T22:51:18.543Z,101748.98
2018-08-31T22:53:46.200Z,101744.61
2018-08-31T22:56:14.117Z,101739.92
2018-08-31T22:58:40.873Z,101746.92
2018-08-31T23:01:08.514Z,101743.77
2018-08-31T23:03:36.218Z,101745.59
2018-08-31T23:06:03.372Z,101746.80
2018-08-31T23:08:30.859Z,101752.85
2018-08-31T23:10:57.524Z,101745.23
2018-08-31T23:13:25.120Z,101747.27
2018-08-31T23:15:52.636Z,101751.03
2018-08-31T23:18:20.348Z,101750.31
2018-08-31T23:20:48.013Z,101749.09
2018-08-31T23:23:20.531Z,101745.45
2018-08-31T23:25:49.588Z,101747.28
2018-08-31T23:28:16.366Z,101745.36
2018-08-31T23:30:44.771Z,101740.77
2018-08-31T23:33:12.408Z,101746.69
2018-08-31T23:35:39.940Z,101750.78
2018-08-31T23:38:07.439Z,101755.37
2018-08-31T23:40:35.115Z,101750.91
2018-08-31T23:43:01.784Z,101748.02
2018-08-31T23:45:29.534Z,101747.27
2018-08-31T23:47:57.165Z,101749.93
2018-08-31T23:50:25.460Z,101750.55
2018-08-31T23:52:53.456Z,101748.02
2018-08-31T23:55:20.134Z,101742.32
2018-08-31T23:57:46.999Z,101741.25
